Time;durP1;ratioP1;P1;durP2;ratioP2;P2;SDS_P1;SDS_P2;PMS_P1;PMS_P2;Temp;Humidity;BMP_temperature;BMP_pressure;BME280_temperature;BME280_humidity;BME280_pressure;Samples;Min_cycle;Max_cycle;Signal;HPM_P1;HPM_P2
2022/07/29 00:00:38;;;;;;;0.00;0.00;;;;;;;;;;5035197;28;20222;-74
2022/07/29 00:03:05;;;;;;;0.00;0.00;;;;;;;;;;5036851;28;20199;-74
2022/07/29 00:05:33;;;;;;;0.00;0.00;;;;;;;;;;5042994;28;20264;-74
2022/07/29 00:08:00;;;;;;;0.00;0.00;;;;;;;;;;5040891;28;20205;-74
2022/07/29 00:10:29;;;;;;;0.00;0.00;;;16.50;99.90;;;;;;5042712;28;20227;-75
2022/07/29 00:12:56;;;;;;;0.00;0.00;;;16.40;99.90;;;;;;5057106;28;20214;-74
2022/07/29 00:15:23;;;;;;;0.00;0.00;;;16.40;99.90;;;;;;5046833;28;20207;-75
2022/07/29 00:17:50;;;;;;;0.00;0.00;;;16.40;99.90;;;;;;5046147;28;20230;-75
2022/07/29 00:20:17;;;;;;;0.00;0.00;;;16.40;99.90;;;;;;5046281;28;20210;-75
2022/07/29 00:22:44;;;;;;;0.00;0.00;;;16.40;99.90;;;;;;5050268;28;20338;-75
2022/07/29 00:25:13;;;;;;;0.00;0.00;;;16.40;99.90;;;;;;5061999;28;20231;-75
2022/07/29 00:27:41;;;;;;;0.00;0.00;;;16.40;99.90;;;;;;5045649;28;20195;-75
2022/07/29 00:30:09;;;;;;;0.00;0.00;;;16.30;99.90;;;;;;5047085;28;20198;-75
2022/07/29 00:32:35;;;;;;;0.00;0.00;;;16.30;99.90;;;;;;5068846;28;20252;-76
2022/07/29 00:37:48;;;;;;;0.00;0.00;;;;;;;;;;5048646;28;20349;-76
2022/07/29 00:40:15;;;;;;;0.00;0.00;;;16.30;99.90;;;;;;5049564;28;20206;-76
2022/07/29 00:42:45;;;;;;;0.00;0.00;;;16.20;99.90;;;;;;5065758;28;20203;-76
2022/07/29 00:45:12;;;;;;;0.00;0.00;;;16.20;99.90;;;;;;5037047;28;20298;-76
2022/07/29 00:47:39;;;;;;;0.00;0.00;;;16.20;99.90;;;;;;5061160;28;20191;-76
2022/07/29 00:50:08;;;;;;;0.00;0.00;;;16.10;99.90;;;;;;5046515;28;20235;-76
2022/07/29 00:52:37;;;;;;;0.00;0.00;;;16.10;99.90;;;;;;5048635;28;20205;-76
2022/07/29 00:55:05;;;;;;;0.00;0.00;;;16.10;99.90;;;;;;5051585;28;20290;-76
2022/07/29 00:57:33;;;;;;;0.00;0.00;;;16.00;99.90;;;;;;5062794;28;20246;-76
2022/07/29 01:00:01;;;;;;;0.00;0.00;;;15.90;99.90;;;;;;5046840;28;20199;-76
2022/07/29 01:02:28;;;;;;;0.00;0.00;;;15.90;99.90;;;;;;5044959;28;20234;-76
2022/07/29 01:04:56;;;;;;;0.00;0.00;;;15.80;99.90;;;;;;5040203;28;20206;-76
2022/07/29 01:07:25;;;;;;;0.00;0.00;;;15.80;99.90;;;;;;5066745;28;20234;-76
2022/07/29 01:09:54;;;;;;;0.00;0.00;;;15.80;99.90;;;;;;5045604;28;20214;-76
2022/07/29 01:12:25;;;;;;;0.03;0.03;;;15.70;99.90;;;;;;5048870;28;20227;-76
2022/07/29 01:14:54;;;;;;;0.00;0.00;;;15.70;99.90;;;;;;5045164;28;20210;-76
2022/07/29 01:17:27;;;;;;;0.00;0.00;;;15.70;99.90;;;;;;5046677;28;20226;-76
2022/07/29 01:20:02;;;;;;;0.00;0.00;;;15.60;99.90;;;;;;5042615;28;20203;-76
2022/07/29 01:22:38;;;;;;;0.00;0.00;;;15.60;99.90;;;;;;5040449;28;20364;-76
2022/07/29 01:25:30;;;;;;;0.00;0.00;;;15.60;99.90;;;;;;5043036;28;20229;-76
2022/07/29 01:28:14;;;;;;;0.00;0.00;;;15.60;99.90;;;;;;5063164;28;20206;-76
2022/07/29 01:30:45;;;;;;;0.00;0.00;;;15.50;99.90;;;;;;5056577;28;20240;-76
2022/07/29 01:33:48;;;;;;;0.00;0.00;;;15.50;99.90;;;;;;5036753;28;20199;-75
2022/07/29 01:36:11;;;;;;;0.00;0.00;;;15.50;99.90;;;;;;5048922;28;20190;-75
2022/07/29 01:38:41;;;;;;;0.03;0.03;;;15.40;99.90;;;;;;5060457;28;20290;-75
2022/07/29 01:41:13;;;;;;;0.00;0.00;;;15.30;99.90;;;;;;5048035;28;20856;-75
2022/07/29 01:43:45;;;;;;;0.00;0.00;;;15.30;99.90;;;;;;5063132;28;20203;-75
2022/07/29 01:46:19;;;;;;;0.00;0.00;;;15.20;99.90;;;;;;5051009;28;20667;-75
2022/07/29 01:48:49;;;;;;;0.10;0.10;;;15.20;99.90;;;;;;5049164;28;20256;-76
2022/07/29 01:51:20;;;;;;;0.10;0.10;;;15.20;99.90;;;;;;5047935;28;20222;-76
2022/07/29 01:53:52;;;;;;;0.00;0.00;;;15.20;99.90;;;;;;5058400;28;20267;-76
2022/07/29 01:56:21;;;;;;;0.00;0.00;;;15.10;99.90;;;;;;5056371;28;20198;-76
2022/07/29 01:58:50;;;;;;;0.07;0.07;;;15.00;99.90;;;;;;5061030;28;20241;-76
2022/07/29 02:01:20;;;;;;;0.00;0.00;;;14.90;99.90;;;;;;5048458;28;20679;-76
2022/07/29 02:03:48;;;;;;;0.00;0.00;;;15.00;99.90;;;;;;5044724;28;20203;-76
2022/07/29 02:06:19;;;;;;;0.10;0.10;;;14.90;99.90;;;;;;5044454;28;20211;-76
2022/07/29 02:08:48;;;;;;;0.00;0.00;;;14.90;99.90;;;;;;5040871;28;20199;-76
2022/07/29 02:11:15;;;;;;;0.07;0.07;;;14.90;99.90;;;;;;5042447;28;20233;-76
2022/07/29 02:13:44;;;;;;;0.00;0.00;;;14.80;99.90;;;;;;5039364;28;20203;-76
2022/07/29 02:16:12;;;;;;;0.03;0.03;;;14.80;99.90;;;;;;5042246;28;20219;-75
2022/07/29 02:18:45;;;;;;;0.00;0.00;;;14.80;99.90;;;;;;5049639;28;20215;-75
2022/07/29 02:21:15;;;;;;;0.10;0.10;;;14.80;99.90;;;;;;5044953;28;20249;-76
2022/07/29 02:23:45;;;;;;;0.00;0.00;;;14.80;99.90;;;;;;5042688;28;20237;-76
2022/07/29 02:26:12;;;;;;;0.00;0.00;;;14.80;99.90;;;;;;5047297;28;20256;-76
2022/07/29 02:28:40;;;;;;;0.00;0.00;;;14.80;99.90;;;;;;5042168;28;20292;-76
2022/07/29 02:31:09;;;;;;;0.00;0.00;;;14.80;99.90;;;;;;5047534;28;20276;-76
2022/07/29 02:33:37;;;;;;;0.10;0.10;;;14.80;99.90;;;;;;5042047;28;20244;-76
2022/07/29 02:36:06;;;;;;;0.00;0.00;;;14.80;99.90;;;;;;5034701;28;20418;-76
2022/07/29 02:38:57;;;;;;;0.10;0.10;;;14.90;99.90;;;;;;5046249;28;20230;-76
2022/07/29 02:41:26;;;;;;;0.10;0.10;;;14.90;99.90;;;;;;5059241;28;20302;-76
2022/07/29 02:43:58;;;;;;;0.00;0.00;;;14.90;99.90;;;;;;5061167;28;20728;-76
2022/07/29 02:46:31;;;;;;;0.00;0.00;;;14.90;99.90;;;;;;5049777;28;20278;-76
2022/07/29 02:49:03;;;;;;;0.00;0.00;;;14.90;99.90;;;;;;5043038;28;20290;-76
2022/07/29 02:51:42;;;;;;;0.00;0.00;;;14.90;99.90;;;;;;5047027;28;20227;-76
2022/07/29 02:54:11;;;;;;;0.00;0.00;;;15.00;99.90;;;;;;5053774;28;20222;-75
2022/07/29 02:56:40;;;;;;;0.00;0.00;;;15.00;99.90;;;;;;5061615;28;20252;-76
2022/07/29 02:59:14;;;;;;;0.10;0.10;;;15.00;99.90;;;;;;5043567;28;20356;-76
2022/07/29 03:01:44;;;;;;;0.00;0.00;;;15.00;99.90;;;;;;5047068;28;20226;-76
2022/07/29 03:04:13;;;;;;;0.00;0.00;;;15.00;99.90;;;;;;5043768;28;20207;-76
2022/07/29 03:06:41;;;;;;;0.00;0.00;;;15.00;99.90;;;;;;5063678;28;20198;-76
2022/07/29 03:09:10;;;;;;;0.00;0.00;;;14.90;99.90;;;;;;5046910;28;20199;-76
2022/07/29 03:11:38;;;;;;;0.00;0.00;;;14.90;99.90;;;;;;5045182;28;20252;-76
2022/07/29 03:14:06;;;;;;;0.00;0.00;;;14.80;99.90;;;;;;5036930;28;20291;-76
2022/07/29 03:16:36;;;;;;;0.00;0.00;;;14.80;99.90;;;;;;5059827;28;20203;-76
2022/07/29 03:19:04;;;;;;;0.00;0.00;;;14.80;99.90;;;;;;5053589;28;20219;-76
2022/07/29 03:21:31;;;;;;;0.00;0.00;;;14.80;99.90;;;;;;5053336;28;20293;-76
2022/07/29 03:24:00;;;;;;;0.00;0.00;;;14.80;99.90;;;;;;5038796;28;20207;-76
2022/07/29 03:26:27;;;;;;;0.00;0.00;;;14.80;99.90;;;;;;5048082;28;20195;-76
2022/07/29 03:28:54;;;;;;;0.00;0.00;;;14.80;99.90;;;;;;5040597;28;20207;-76
2022/07/29 03:31:21;;;;;;;0.07;0.07;;;14.80;99.90;;;;;;5044580;28;20230;-76
2022/07/29 03:33:48;;;;;;;0.00;0.00;;;14.80;99.90;;;;;;5045984;28;20225;-76
2022/07/29 03:36:15;;;;;;;0.10;0.10;;;14.80;99.90;;;;;;5044448;28;20191;-76
2022/07/29 03:38:44;;;;;;;0.03;0.03;;;14.80;99.90;;;;;;5039490;28;20682;-75
2022/07/29 03:41:14;;;;;;;0.00;0.00;;;14.80;99.90;;;;;;5042131;28;20309;-75
2022/07/29 03:43:42;;;;;;;0.00;0.00;;;14.90;99.90;;;;;;5054011;28;20205;-76
2022/07/29 03:46:12;;;;;;;0.00;0.00;;;14.90;99.90;;;;;;5059887;28;20195;-76
2022/07/29 03:48:44;;;;;;;0.00;0.00;;;14.80;99.90;;;;;;5047381;28;20197;-76
2022/07/29 03:51:11;;;;;;;0.00;0.00;;;14.80;99.90;;;;;;5043949;28;20253;-75
2022/07/29 03:53:39;;;;;;;0.10;0.10;;;14.80;99.90;;;;;;5051842;28;20206;-76
2022/07/29 03:56:07;;;;;;;0.00;0.00;;;14.80;99.90;;;;;;5058989;28;20202;-76
2022/07/29 03:58:35;;;;;;;0.10;0.10;;;14.80;99.90;;;;;;5058945;28;20218;-76
2022/07/29 04:01:03;;;;;;;0.10;0.10;;;14.80;99.90;;;;;;5043469;28;20231;-75
2022/07/29 04:03:30;;;;;;;0.00;0.00;;;14.80;99.90;;;;;;5043863;28;20203;-74
2022/07/29 04:06:02;;;;;;;0.10;0.10;;;14.90;99.90;;;;;;5037981;28;20209;-71
2022/07/29 04:08:30;;;;;;;0.07;0.07;;;14.90;99.90;;;;;;5043868;28;20206;-71
2022/07/29 04:10:57;;;;;;;0.00;0.00;;;14.90;99.90;;;;;;5048649;28;20226;-71
2022/07/29 04:13:23;;;;;;;0.00;0.00;;;14.90;99.90;;;;;;5048108;28;20266;-71
2022/07/29 04:15:52;;;;;;;0.10;0.10;;;14.90;99.90;;;;;;5051375;28;20206;-70
2022/07/29 04:18:19;;;;;;;0.03;0.03;;;14.90;99.90;;;;;;5047830;28;20214;-71
2022/07/29 04:20:48;;;;;;;0.10;0.10;;;15.00;99.90;;;;;;5048223;28;20222;-71
2022/07/29 04:23:15;;;;;;;0.03;0.03;;;15.00;99.90;;;;;;5050285;28;20207;-71
2022/07/29 04:25:42;;;;;;;0.00;0.00;;;15.00;99.90;;;;;;5044364;28;20668;-71
2022/07/29 04:28:10;;;;;;;0.10;0.10;;;15.00;99.90;;;;;;5042566;28;20203;-71
2022/07/29 04:30:38;;;;;;;0.00;0.00;;;15.10;99.90;;;;;;5059670;28;20754;-71
2022/07/29 04:33:07;;;;;;;0.00;0.00;;;15.10;99.90;;;;;;5058716;28;20208;-71
2022/07/29 04:35:37;;;;;;;0.03;0.03;;;15.10;99.90;;;;;;5047344;28;20725;-71
2022/07/29 04:38:04;;;;;;;0.00;0.00;;;15.10;99.90;;;;;;5045340;28;20219;-71
2022/07/29 04:40:32;;;;;;;0.00;0.00;;;15.20;99.90;;;;;;5043135;28;20302;-72
2022/07/29 04:43:00;;;;;;;0.10;0.10;;;15.20;99.90;;;;;;5038432;28;20203;-71
2022/07/29 04:45:27;;;;;;;0.00;0.00;;;15.20;99.90;;;;;;5036972;28;20596;-72
2022/07/29 04:47:55;;;;;;;0.00;0.00;;;15.20;99.90;;;;;;5041201;28;20207;-71
2022/07/29 04:50:23;;;;;;;0.00;0.00;;;15.20;99.90;;;;;;5047369;28;20272;-71
2022/07/29 04:52:50;;;;;;;0.10;0.10;;;15.20;99.90;;;;;;5061921;28;20216;-71
2022/07/29 04:55:17;;;;;;;0.00;0.00;;;15.20;99.90;;;;;;5047338;28;20209;-71
2022/07/29 04:57:44;;;;;;;0.10;0.10;;;15.20;99.90;;;;;;5067349;28;20230;-72
2022/07/29 05:00:12;;;;;;;0.00;0.00;;;15.30;99.90;;;;;;5060716;28;20260;-71
2022/07/29 05:02:39;;;;;;;0.00;0.00;;;15.30;99.90;;;;;;5069273;28;20294;-71
2022/07/29 05:05:06;;;;;;;0.00;0.00;;;15.40;99.90;;;;;;5057137;28;20206;-71
2022/07/29 05:07:35;;;;;;;0.00;0.00;;;15.40;99.90;;;;;;5039264;28;20202;-71
2022/07/29 05:10:02;;;;;;;0.10;0.10;;;15.50;99.90;;;;;;5056166;28;20186;-71
2022/07/29 05:12:29;;;;;;;0.00;0.00;;;15.60;99.90;;;;;;5049977;28;20210;-71
2022/07/29 05:14:56;;;;;;;0.00;0.00;;;15.70;99.90;;;;;;5055862;28;20205;-71
2022/07/29 05:17:23;;;;;;;0.00;0.00;;;15.80;99.90;;;;;;5048125;28;20210;-74
2022/07/29 05:19:51;;;;;;;0.00;0.00;;;15.80;99.90;;;;;;5050564;28;20226;-74
2022/07/29 05:22:18;;;;;;;0.00;0.00;;;15.90;99.90;;;;;;5045145;28;20223;-74
2022/07/29 05:24:47;;;;;;;0.00;0.00;;;16.00;99.90;;;;;;5048094;28;20202;-74
2022/07/29 05:31:02;;;;;;;0.00;0.00;;;16.10;99.90;;;;;;5024772;28;20233;-73
2022/07/29 05:33:31;;;;;;;0.00;0.00;;;16.30;99.90;;;;;;5058389;28;20214;-73
2022/07/29 05:35:59;;;;;;;0.00;0.00;;;16.40;99.90;;;;;;5050254;28;20226;-73
2022/07/29 05:38:39;;;;;;;0.07;0.07;;;16.50;99.90;;;;;;5053912;28;20333;-74
2022/07/29 05:41:08;;;;;;;0.03;0.03;;;16.70;99.90;;;;;;5076218;22;20225;-74
2022/07/29 05:43:35;;;;;;;0.10;0.10;;;16.80;99.90;;;;;;5053377;28;20209;-73
2022/07/29 05:46:02;;;;;;;0.00;0.00;;;17.10;99.90;;;;;;5050847;28;20233;-73
2022/07/29 05:48:29;;;;;;;0.10;0.10;;;17.40;99.90;;;;;;5052338;28;20647;-73
2022/07/29 05:50:56;;;;;;;0.00;0.00;;;17.70;99.90;;;;;;5054139;28;20219;-71
2022/07/29 05:53:29;;;;;;;0.00;0.00;;;17.90;99.90;;;;;;5053089;28;20224;-75
2022/07/29 05:55:56;;;;;;;0.00;0.00;;;18.00;99.90;;;;;;5056053;28;20209;-73
2022/07/29 05:58:25;;;;;;;0.00;0.00;;;18.00;99.90;;;;;;5055014;28;20217;-73
2022/07/29 06:00:52;;;;;;;0.00;0.00;;;18.00;99.90;;;;;;5076998;28;20778;-73
2022/07/29 06:03:19;;;;;;;0.00;0.00;;;18.00;99.90;;;;;;5052159;28;20190;-72
2022/07/29 06:05:46;;;;;;;0.00;0.00;;;18.00;99.90;;;;;;5052899;28;20282;-73
2022/07/29 06:08:13;;;;;;;0.00;0.00;;;18.00;99.90;;;;;;5053775;28;20203;-72
2022/07/29 06:10:40;;;;;;;0.10;0.10;;;18.00;99.90;;;;;;5050290;28;20250;-74
2022/07/29 06:13:07;;;;;;;0.00;0.00;;;18.10;99.90;;;;;;5053272;28;20233;-73
2022/07/29 06:15:36;;;;;;;0.00;0.00;;;18.20;99.90;;;;;;5075159;28;20213;-73
2022/07/29 06:18:03;;;;;;;0.00;0.00;;;18.30;99.90;;;;;;5046510;28;20196;-73
2022/07/29 06:20:31;;;;;;;0.00;0.00;;;18.30;99.90;;;;;;5050853;28;20222;-73
2022/07/29 06:22:57;;;;;;;0.00;0.00;;;18.30;99.90;;;;;;5047891;28;20202;-74
2022/07/29 06:25:24;;;;;;;0.00;0.00;;;18.20;99.90;;;;;;5049328;28;20213;-73
2022/07/29 06:27:52;;;;;;;0.07;0.07;;;18.20;99.90;;;;;;5055814;28;20293;-73
2022/07/29 06:30:19;;;;;;;0.00;0.00;;;18.40;99.90;;;;;;5059728;28;20580;-73
2022/07/29 06:32:47;;;;;;;0.00;0.00;;;18.40;99.90;;;;;;5053483;28;20272;-74
2022/07/29 06:35:46;;;;;;;0.00;0.00;;;18.50;99.90;;;;;;5059026;28;20208;-72
2022/07/29 06:38:14;;;;;;;0.00;0.00;;;18.50;99.90;;;;;;5045153;28;20235;-71
2022/07/29 06:41:00;;;;;;;0.00;0.00;;;18.60;99.90;;;;;;5052081;28;20329;-72
2022/07/29 06:43:31;;;;;;;0.00;0.00;;;18.60;99.90;;;;;;5054576;28;20197;-73
2022/07/29 06:45:59;;;;;;;0.00;0.00;;;18.60;99.90;;;;;;5046069;28;20198;-74
2022/07/29 06:48:28;;;;;;;0.00;0.00;;;18.60;99.90;;;;;;5038791;28;20284;-74
2022/07/29 06:50:55;;;;;;;0.00;0.00;;;18.60;99.90;;;;;;5048931;28;20245;-74
2022/07/29 06:53:22;;;;;;;0.00;0.00;;;18.70;99.90;;;;;;5044768;28;20302;-74
2022/07/29 06:55:49;;;;;;;0.00;0.00;;;18.60;99.90;;;;;;5064841;28;20248;-74
2022/07/29 06:58:17;;;;;;;0.00;0.00;;;18.60;99.90;;;;;;5042463;28;20294;-73
2022/07/29 07:00:56;;;;;;;0.00;0.00;;;18.70;99.90;;;;;;5039424;28;20307;-73
2022/07/29 07:03:25;;;;;;;0.00;0.00;;;18.60;99.90;;;;;;5045622;28;20206;-73
2022/07/29 07:05:55;;;;;;;0.00;0.00;;;18.70;99.90;;;;;;5048712;28;20207;-74
2022/07/29 07:08:23;;;;;;;0.00;0.00;;;18.80;99.90;;;;;;5043432;28;20234;-74
2022/07/29 07:10:50;;;;;;;0.00;0.00;;;18.80;99.90;;;;;;5062271;28;20218;-75
2022/07/29 07:13:17;;;;;;;0.00;0.00;;;18.70;99.90;;;;;;5059179;28;20610;-73
2022/07/29 07:15:47;;;;;;;0.00;0.00;;;18.70;99.90;;;;;;5060441;28;20202;-74
2022/07/29 07:18:15;;;;;;;0.00;0.00;;;18.70;99.90;;;;;;5038060;28;20218;-73
2022/07/29 07:20:42;;;;;;;0.00;0.00;;;18.70;99.90;;;;;;5044790;28;20276;-73
2022/07/29 07:23:10;;;;;;;0.00;0.00;;;18.80;99.90;;;;;;5046434;28;20206;-72
2022/07/29 07:25:37;;;;;;;0.00;0.00;;;18.80;99.90;;;;;;5042468;28;20206;-72
2022/07/29 07:28:05;;;;;;;0.00;0.00;;;;;;;;;;5062361;28;20260;-73
2022/07/29 07:30:34;;;;;;;0.00;0.00;;;;;;;;;;5047338;28;20241;-71
2022/07/29 07:33:02;;;;;;;0.00;0.00;;;;;;;;;;5046687;28;20705;-74
2022/07/29 07:35:29;;;;;;;0.00;0.00;;;;;;;;;;5040577;28;20616;-72
2022/07/29 07:37:56;;;;;;;0.00;0.00;;;;;;;;;;5041573;28;20199;-73
2022/07/29 07:40:25;;;;;;;0.00;0.00;;;;;;;;;;5049387;28;20230;-73
2022/07/29 07:42:53;;;;;;;0.00;0.00;;;;;;;;;;5044083;28;20210;-72
2022/07/29 07:45:20;;;;;;;0.00;0.00;;;;;;;;;;5062388;28;20195;-74
2022/07/29 07:47:50;;;;;;;0.00;0.00;;;;;;;;;;5049664;28;20210;-74
2022/07/29 07:50:18;;;;;;;0.00;0.00;;;;;;;;;;5053060;28;20214;-72
2022/07/29 07:52:50;;;;;;;0.00;0.00;;;;;;;;;;5048069;28;20226;-73
2022/07/29 07:55:17;;;;;;;0.00;0.00;;;19.60;99.90;;;;;;5052478;28;20214;-74
2022/07/29 07:57:46;;;;;;;0.00;0.00;;;19.90;99.90;;;;;;5052064;28;20202;-74
2022/07/29 08:00:15;;;;;;;0.00;0.00;;;20.10;99.90;;;;;;5059548;28;20226;-75
2022/07/29 08:02:44;;;;;;;0.00;0.00;;;;;;;;;;5052998;28;20206;-74
2022/07/29 08:05:16;;;;;;;0.00;0.00;;;;;;;;;;5055303;28;20195;-74
2022/07/29 08:07:43;;;;;;;0.00;0.00;;;;;;;;;;5051586;28;20194;-71
2022/07/29 08:10:11;;;;;;;0.00;0.00;;;;;;;;;;5050950;28;20585;-72
2022/07/29 08:12:38;;;;;;;0.00;0.00;;;;;;;;;;5051405;28;20183;-73
2022/07/29 08:15:08;;;;;;;0.00;0.00;;;;;;;;;;5057401;28;20199;-74
2022/07/29 08:17:35;;;;;;;0.00;0.00;;;;;;;;;;5049188;28;20252;-72
2022/07/29 08:20:03;;;;;;;0.00;0.00;;;;;;;;;;5051843;28;20227;-73
2022/07/29 08:22:30;;;;;;;0.00;0.00;;;;;;;;;;5054169;28;20207;-73
2022/07/29 08:24:57;;;;;;;0.00;0.00;;;20.20;99.90;;;;;;5058027;28;20210;-73
2022/07/29 08:27:26;;;;;;;0.00;0.00;;;;;;;;;;5050883;28;20253;-73
2022/07/29 08:29:55;;;;;;;0.00;0.00;;;20.30;99.90;;;;;;5050242;28;20296;-73
2022/07/29 08:32:24;;;;;;;0.00;0.00;;;;;;;;;;5051753;28;20213;-73
2022/07/29 08:34:51;;;;;;;0.00;0.00;;;;;;;;;;5057963;28;20264;-73
2022/07/29 08:37:19;;;;;;;0.00;0.00;;;;;;;;;;5053443;28;20206;-75
2022/07/29 08:39:46;;;;;;;0.00;0.00;;;;;;;;;;5047564;28;20747;-75
2022/07/29 08:42:13;;;;;;;0.00;0.00;;;;;;;;;;5058437;28;20204;-75
2022/07/29 08:44:40;;;;;;;0.00;0.00;;;;;;;;;;5045966;28;20204;-74
2022/07/29 08:47:08;;;;;;;0.00;0.00;;;;;;;;;;5042271;28;20312;-74
2022/07/29 08:49:37;;;;;;;0.00;0.00;;;;;;;;;;5057362;28;20251;-74
2022/07/29 08:52:05;;;;;;;0.00;0.00;;;;;;;;;;5049257;28;20790;-74
2022/07/29 08:54:32;;;;;;;0.00;0.00;;;;;;;;;;5044850;28;20202;-73
2022/07/29 08:57:00;;;;;;;0.00;0.00;;;22.40;99.90;;;;;;5053464;28;20213;-73
2022/07/29 08:59:28;;;;;;;0.00;0.00;;;22.70;99.90;;;;;;5054470;28;20219;-73
2022/07/29 09:01:59;;;;;;;0.00;0.00;;;22.90;99.90;;;;;;5065346;28;20202;-74
2022/07/29 09:04:30;;;;;;;0.00;0.00;;;23.10;99.90;;;;;;5049316;28;20210;-74
2022/07/29 09:07:02;;;;;;;0.00;0.00;;;23.20;99.90;;;;;;5035541;28;20306;-75
2022/07/29 09:09:29;;;;;;;0.00;0.00;;;23.30;99.90;;;;;;5045275;28;20199;-73
2022/07/29 09:11:56;;;;;;;0.00;0.00;;;23.40;99.90;;;;;;5038157;28;20199;-74
2022/07/29 09:14:24;;;;;;;0.00;0.00;;;23.60;99.90;;;;;;5043412;28;20280;-71
2022/07/29 09:16:53;;;;;;;0.00;0.00;;;23.70;99.90;;;;;;5048564;28;20222;-75
2022/07/29 09:19:22;;;;;;;0.00;0.00;;;23.70;99.90;;;;;;5038456;28;20226;-73
2022/07/29 09:22:01;;;;;;;0.00;0.00;;;23.90;99.90;;;;;;5035841;28;20207;-74
2022/07/29 09:24:39;;;;;;;0.00;0.00;;;23.90;99.90;;;;;;5047200;28;20200;-74
2022/07/29 09:27:21;;;;;;;0.00;0.00;;;24.00;99.90;;;;;;5057329;28;20229;-73
2022/07/29 09:29:56;;;;;;;0.00;0.00;;;24.00;99.90;;;;;;5039162;28;20215;-74
2022/07/29 09:32:22;;;;;;;0.00;0.00;;;24.20;99.90;;;;;;5038989;28;20209;-75
2022/07/29 09:34:50;;;;;;;0.00;0.00;;;;;;;;;;5041908;28;20268;-72
2022/07/29 09:37:27;;;;;;;0.00;0.00;;;;;;;;;;5040845;28;20210;-73
2022/07/29 09:39:55;;;;;;;0.00;0.00;;;24.40;99.90;;;;;;5043298;28;20228;-73
2022/07/29 09:42:29;;;;;;;0.00;0.00;;;24.50;99.90;;;;;;5050201;28;20610;-72
2022/07/29 09:44:57;;;;;;;0.00;0.00;;;24.90;99.90;;;;;;5046203;28;20202;-72
2022/07/29 09:47:41;;;;;;;0.00;0.00;;;;;;;;;;5060538;28;20318;-72
2022/07/29 09:50:09;;;;;;;0.00;0.00;;;;;;;;;;5049933;28;20313;-72
2022/07/29 09:52:47;;;;;;;0.00;0.00;;;25.20;99.90;;;;;;5047030;28;20211;-72
2022/07/29 09:55:16;;;;;;;0.00;0.00;;;25.10;99.90;;;;;;5044713;28;20222;-72
2022/07/29 09:57:43;;;;;;;0.00;0.00;;;25.30;99.90;;;;;;5047644;28;20202;-72
2022/07/29 10:00:12;;;;;;;0.00;0.00;;;25.40;99.90;;;;;;5047589;28;20218;-72
2022/07/29 10:02:40;;;;;;;0.00;0.00;;;;;;;;;;5074507;28;20719;-73
2022/07/29 10:05:17;;;;;;;0.00;0.00;;;;;;;;;;5054074;28;20206;-73
2022/07/29 10:08:38;;;;;;;0.00;0.00;;;25.60;99.90;;;;;;5091744;22;20226;-72
2022/07/29 10:18:46;;;;;;;0.00;0.00;;;;;;;;;;4985881;28;20243;-70
2022/07/29 10:21:14;;;;;;;0.00;0.00;;;;;;;;;;4974994;28;20229;-70
2022/07/29 10:23:43;;;;;;;0.00;0.00;;;26.40;99.90;;;;;;5049271;28;20205;-70
2022/07/29 10:26:39;;;;;;;0.00;0.00;;;26.30;99.90;;;;;;5049694;28;20225;-71
2022/07/29 10:29:06;;;;;;;0.00;0.00;;;26.30;99.90;;;;;;5048595;28;20291;-71
2022/07/29 10:31:48;;;;;;;0.00;0.00;;;;;;;;;;5055559;28;20199;-71
2022/07/29 10:34:20;;;;;;;0.00;0.00;;;;;;;;;;5053561;28;20202;-70
2022/07/29 10:36:51;;;;;;;0.00;0.00;;;;;;;;;;5070421;28;20209;-69
2022/07/29 10:39:32;;;;;;;0.00;0.00;;;26.80;99.90;;;;;;5054014;28;20644;-71
2022/07/29 10:42:12;;;;;;;0.00;0.00;;;26.90;99.90;;;;;;5057186;28;20230;-75
2022/07/29 10:44:42;;;;;;;0.00;0.00;;;27.00;99.90;;;;;;5055792;28;20222;-70
2022/07/29 10:47:09;;;;;;;0.00;0.00;;;27.00;99.90;;;;;;5058197;28;20295;-70
2022/07/29 10:49:37;;;;;;;0.00;0.00;;;27.10;99.90;;;;;;5050826;28;20293;-73
2022/07/29 10:52:06;;;;;;;0.00;0.00;;;;;;;;;;5052364;28;20302;-74
2022/07/29 10:54:49;;;;;;;0.00;0.00;;;27.30;99.90;;;;;;5051163;28;20875;-70
2022/07/29 10:57:28;;;;;;;0.00;0.00;;;27.30;99.90;;;;;;5057411;28;20257;-71
2022/07/29 11:00:32;;;;;;;0.00;0.00;;;27.40;99.90;;;;;;5053881;28;20206;-76
2022/07/29 11:03:00;;;;;;;0.00;0.00;;;27.20;99.90;;;;;;5044762;28;20206;-71
2022/07/29 11:05:31;;;;;;;0.00;0.00;;;27.50;99.90;;;;;;5049893;28;20226;-74
2022/07/29 11:08:20;;;;;;;0.00;0.00;;;27.70;99.90;;;;;;5053516;28;20234;-72
2022/07/29 11:10:47;;;;;;;0.00;0.00;;;;;;;;;;5054218;28;20214;-72
2022/07/29 11:13:14;;;;;;;0.00;0.00;;;;;;;;;;5058461;28;20210;-74
2022/07/29 11:15:54;;;;;;;0.00;0.00;;;;;;;;;;5056107;28;20305;-68
2022/07/29 11:18:22;;;;;;;0.00;0.00;;;;;;;;;;5060587;28;20205;-72
2022/07/29 11:20:53;;;;;;;0.00;0.00;;;;;;;;;;5054240;28;20226;-72
2022/07/29 11:23:24;;;;;;;0.00;0.00;;;;;;;;;;5060973;28;20678;-71
2022/07/29 11:26:10;;;;;;;0.00;0.00;;;;;;;;;;5067618;28;20223;-75
2022/07/29 11:28:40;;;;;;;0.00;0.00;;;;;;;;;;5046819;28;20211;-74
2022/07/29 11:31:10;;;;;;;0.00;0.00;;;27.80;99.90;;;;;;5052979;28;20199;-72
2022/07/29 11:33:37;;;;;;;0.00;0.00;;;28.00;99.90;;;;;;5054956;28;20210;-70
2022/07/29 11:36:13;;;;;;;0.00;0.00;;;28.00;99.90;;;;;;5061148;28;20221;-73
2022/07/29 11:38:41;;;;;;;0.00;0.00;;;28.10;99.90;;;;;;5056271;28;20313;-73
2022/07/29 11:41:23;;;;;;;0.00;0.00;;;28.30;99.90;;;;;;5043685;28;20225;-72
2022/07/29 11:43:52;;;;;;;0.00;0.00;;;28.50;99.90;;;;;;5047695;28;20290;-69
2022/07/29 11:46:44;;;;;;;0.00;0.00;;;28.60;99.90;;;;;;5050031;28;20223;-69
2022/07/29 11:49:12;;;;;;;0.00;0.00;;;28.80;99.90;;;;;;5051157;28;20203;-72
2022/07/29 11:51:42;;;;;;;0.00;0.00;;;28.90;99.90;;;;;;5053985;28;20205;-72
2022/07/29 11:54:49;;;;;;;0.00;0.00;;;29.10;99.90;;;;;;5049906;28;20276;-73
2022/07/29 11:57:18;;;;;;;0.00;0.00;;;29.30;99.90;;;;;;5043162;28;20217;-70
2022/07/29 11:59:47;;;;;;;0.00;0.00;;;29.20;99.90;;;;;;5051126;28;20237;-70
2022/07/29 12:02:15;;;;;;;0.00;0.00;;;29.00;99.90;;;;;;5052885;28;20226;-70
2022/07/29 12:04:49;;;;;;;0.00;0.00;;;28.90;99.90;;;;;;5054336;28;20244;-74
2022/07/29 12:07:18;;;;;;;0.00;0.00;;;28.70;99.90;;;;;;5055460;28;20206;-73
2022/07/29 12:09:51;;;;;;;0.00;0.00;;;28.70;99.90;;;;;;5056421;28;20196;-74
2022/07/29 12:12:18;;;;;;;0.00;0.00;;;28.70;99.90;;;;;;5050593;28;20199;-73
2022/07/29 12:14:46;;;;;;;0.00;0.00;;;28.60;99.90;;;;;;5059493;28;20634;-74
2022/07/29 12:17:27;;;;;;;0.00;0.00;;;28.70;99.90;;;;;;5047815;28;20306;-74
2022/07/29 12:19:54;;;;;;;0.00;0.00;;;28.80;99.90;;;;;;5051081;28;20199;-74
2022/07/29 12:22:28;;;;;;;0.00;0.00;;;29.00;99.90;;;;;;5061480;28;20280;-74
2022/07/29 12:24:56;;;;;;;0.00;0.00;;;29.20;99.90;;;;;;5057335;28;20314;-69
2022/07/29 12:27:23;;;;;;;0.00;0.00;;;29.50;99.90;;;;;;5061683;28;20210;-71
2022/07/29 12:29:57;;;;;;;0.00;0.00;;;29.50;99.90;;;;;;5063887;28;20212;-70
2022/07/29 12:32:24;;;;;;;0.00;0.00;;;29.60;99.90;;;;;;5064035;28;20201;-70
2022/07/29 12:34:52;;;;;;;0.00;0.00;;;29.60;99.90;;;;;;5063997;28;20219;-74
2022/07/29 12:37:19;;;;;;;0.00;0.00;;;29.50;99.90;;;;;;5057572;28;20260;-74
2022/07/29 12:39:48;;;;;;;0.00;0.00;;;29.60;99.90;;;;;;5063715;28;20190;-75
2022/07/29 12:42:16;;;;;;;0.00;0.00;;;29.50;99.90;;;;;;5061707;28;20302;-74
2022/07/29 12:44:47;;;;;;;0.00;0.00;;;29.40;99.90;;;;;;5071798;28;20210;-74
2022/07/29 12:47:15;;;;;;;0.00;0.00;;;29.30;99.90;;;;;;5065059;28;20213;-73
2022/07/29 12:49:42;;;;;;;0.00;0.00;;;29.30;99.90;;;;;;5065299;28;20271;-73
2022/07/29 12:52:27;;;;;;;0.00;0.00;;;29.30;99.90;;;;;;5065421;28;20186;-73
2022/07/29 12:54:55;;;;;;;0.00;0.00;;;29.20;99.90;;;;;;5056085;28;20759;-74
2022/07/29 12:57:23;;;;;;;0.00;0.00;;;29.20;99.90;;;;;;5062020;28;20222;-74
2022/07/29 13:00:07;;;;;;;0.00;0.00;;;29.10;99.90;;;;;;5059272;28;20675;-71
2022/07/29 13:02:35;;;;;;;0.00;0.00;;;29.10;99.90;;;;;;5055557;28;20230;-71
2022/07/29 13:05:03;;;;;;;0.00;0.00;;;28.90;99.90;;;;;;5051564;28;20311;-74
2022/07/29 13:07:34;;;;;;;0.00;0.00;;;28.80;99.90;;;;;;5053746;28;20234;-73
2022/07/29 13:10:15;;;;;;;0.00;0.00;;;28.70;99.90;;;;;;5052609;28;20199;-74
2022/07/29 13:13:05;;;;;;;0.00;0.00;;;28.70;99.90;;;;;;5070009;28;20694;-74
2022/07/29 13:15:33;;;;;;;0.00;0.00;;;28.70;99.90;;;;;;5058754;28;20222;-73
2022/07/29 13:18:00;;;;;;;0.00;0.00;;;28.80;99.90;;;;;;5058918;28;20203;-74
2022/07/29 13:20:31;;;;;;;0.00;0.00;;;28.90;99.90;;;;;;5060558;28;20221;-74
2022/07/29 13:23:00;;;;;;;0.00;0.00;;;29.00;99.90;;;;;;5062801;28;20317;-73
2022/07/29 13:25:31;;;;;;;0.00;0.00;;;29.10;99.90;;;;;;5065365;28;20225;-73
2022/07/29 13:27:59;;;;;;;0.00;0.00;;;29.10;99.90;;;;;;5058799;28;20206;-74
2022/07/29 13:30:26;;;;;;;0.00;0.00;;;29.10;99.90;;;;;;5059986;28;20206;-74
2022/07/29 13:32:54;;;;;;;0.00;0.00;;;29.10;99.90;;;;;;5060251;28;20766;-75
2022/07/29 13:35:22;;;;;;;0.00;0.00;;;29.10;99.90;;;;;;5067146;28;20214;-73